Διεύθυνση Ιστοσελίδας Σταθμού 01:15 - 22/01/2017
Χώρα Γεωγραφική Περιοχή Φορέας Υψόμετρο
Ελλάδα Μακεδονία P.W.S. 25 μ.
Γεωγραφικό Πλάτος Γεωγραφικό Μήκος Θερμοκρασία Υγρασία
40.74 24.58 1.4 °C 86 %
Πίεση Μέση Ωριαία Ταχύτητα Ανέμου Διεύθυνση Ανέμου Διεύθυνση Ανέμου
1013.3 hPa 3.1 km/h - 1 Bf
ΝΑ
Ραγδαιότητα Σημερινός Υετός Μηνιαίος Υετός Ετήσιος Υετός
0.0 mm/h 0.0 mm 49.2 mm 49.2 mm
Μέγιστη Θερμοκρασία Ελάχιστη Θερμοκρασία Μέγιστη Ριπή Ανέμου Ημέρες χωρίς υετό > 3mm
1.5 °C 1.3 °C 8.6 km/h 2 Ημέρες
METAR - Κωδικοποιημένο Σήμα Σταθμού - Ώρα Σε GMT Διάφορα Στοιχεία Για Τον Σταθμό
2017/01/21 23:23 1153 212323Z 13502KT 7000 FEW050 01/00 Q1013 WH2080
Παρακαλώ περιμένετε, η εικόνα θα εμφανιστεί σε λίγο / please wait the image will appear soon
Copyright © 2007 - 2017 metar.gr